Time;durP1;ratioP1;P1;durP2;ratioP2;P2;SDS_P1;SDS_P2;PMS_P1;PMS_P2;Temp;Humidity;BMP_temperature;BMP_pressure;BME280_temperature;BME280_humidity;BME280_pressure;Samples;Min_cycle;Max_cycle;Signal;HPM_P1;HPM_P2
2022/03/05 00:00:43;;;;;;;27.48;16.45;;;;;;;2.79;64.36;101813.94;5010957;28;20037;-67
2022/03/05 00:03:08;;;;;;;30.23;16.95;;;;;;;2.69;64.07;101813.16;5012981;28;20160;-67
2022/03/05 00:05:33;;;;;;;31.58;17.02;;;;;;;2.67;64.21;101810.63;5013139;28;20462;-67
2022/03/05 00:07:58;;;;;;;30.55;17.42;;;;;;;2.69;64.25;101813.16;5012927;28;20033;-67
2022/03/05 00:10:24;;;;;;;30.50;16.52;;;;;;;2.69;64.31;101811.34;5012850;28;20028;-67
2022/03/05 00:12:50;;;;;;;31.30;17.55;;;;;;;2.62;64.35;101815.59;5022091;28;20406;-67
2022/03/05 00:15:16;;;;;;;29.85;16.42;;;;;;;2.63;64.82;101820.78;5032237;28;20531;-67
2022/03/05 00:17:42;;;;;;;30.35;17.50;;;;;;;2.58;65.04;101819.53;5032688;28;20049;-67
2022/03/05 00:20:08;;;;;;;32.28;17.85;;;;;;;2.61;65.06;101821.91;5032462;28;20029;-68
2022/03/05 00:22:33;;;;;;;33.10;18.05;;;;;;;2.56;65.29;101822.34;5032391;28;20052;-67
2022/03/05 00:24:59;;;;;;;33.35;18.50;;;;;;;2.49;65.37;101821.25;5031105;28;20473;-66
2022/03/05 00:27:24;;;;;;;31.83;18.38;;;;;;;2.46;65.48;101826.91;5024311;28;20116;-67
2022/03/05 00:29:50;;;;;;;30.60;18.15;;;;;;;2.38;65.13;101827.63;5012626;28;20026;-67
2022/03/05 00:32:16;;;;;;;31.52;18.48;;;;;;;2.37;65.51;101827.78;5011364;28;20033;-67
2022/03/05 00:34:41;;;;;;;32.05;18.70;;;;;;;2.40;65.20;101827.50;5012717;28;20137;-67
2022/03/05 00:37:08;;;;;;;30.40;17.50;;;;;;;2.39;65.38;101825.81;5012314;28;20040;-67
2022/03/05 00:39:34;;;;;;;33.03;18.60;;;;;;;2.39;65.47;101821.31;5012727;28;20034;-67
2022/03/05 00:41:59;;;;;;;32.53;19.27;;;;;;;2.29;65.42;101816.03;5018548;28;20094;-66
2022/03/05 00:44:24;;;;;;;36.10;19.38;;;;;;;2.23;66.03;101811.25;5032508;28;20022;-67
2022/03/05 00:46:49;;;;;;;33.28;19.25;;;;;;;2.18;66.82;101818.88;5032580;28;20034;-67
2022/03/05 00:49:15;;;;;;;33.05;19.50;;;;;;;2.14;66.13;101822.81;5032250;28;20053;-66
2022/03/05 00:51:40;;;;;;;34.50;19.40;;;;;;;2.18;66.48;101812.69;5036548;28;20477;-67
2022/03/05 00:54:06;;;;;;;38.78;20.35;;;;;;;2.17;66.11;101809.16;5036266;28;20029;-67
2022/03/05 00:56:31;;;;;;;41.88;20.55;;;;;;;2.12;66.87;101811.44;5031566;28;20026;-67
2022/03/05 00:58:56;;;;;;;38.75;22.05;;;;;;;2.08;66.61;101813.56;5016343;28;20053;-66
2022/03/05 01:01:22;;;;;;;37.13;20.70;;;;;;;2.11;66.05;101817.75;5014048;28;20470;-67
2022/03/05 01:03:47;;;;;;;38.33;20.75;;;;;;;2.15;66.50;101811.16;5016444;28;20037;-66
2022/03/05 01:06:12;;;;;;;35.03;20.83;;;;;;;2.12;66.38;101819.44;5016179;28;20377;-66
2022/03/05 01:08:38;;;;;;;36.17;21.15;;;;;;;2.11;66.25;101817.75;5014961;28;20045;-67
2022/03/05 01:11:04;;;;;;;37.92;21.67;;;;;;;2.07;66.63;101816.38;5015865;28;20113;-67
2022/03/05 01:13:29;;;;;;;37.78;21.23;;;;;;;2.03;67.40;101820.31;5022811;28;20428;-67
2022/03/05 01:15:54;;;;;;;36.55;21.65;;;;;;;2.01;66.81;101822.28;5036008;28;20041;-67
2022/03/05 01:18:19;;;;;;;37.83;21.08;;;;;;;1.98;67.31;101811.88;5035766;28;20030;-67
2022/03/05 01:20:45;;;;;;;40.05;21.52;;;;;;;2.01;66.54;101811.59;5036242;28;20060;-67
2022/03/05 01:23:10;;;;;;;39.50;22.33;;;;;;;1.98;66.88;101806.56;5035384;28;20033;-67
2022/03/05 01:25:35;;;;;;;35.90;21.30;;;;;;;1.99;66.70;101813.59;5035758;28;20479;-66
2022/03/05 01:28:01;;;;;;;36.75;21.48;;;;;;;1.99;67.11;101813.59;5030415;28;20030;-66
2022/03/05 01:30:27;;;;;;;36.58;21.23;;;;;;;1.96;67.13;101814.72;5016064;28;20026;-66
2022/03/05 01:32:52;;;;;;;37.75;22.33;;;;;;;1.94;66.51;101814.84;5015720;28;20030;-67
2022/03/05 01:35:18;;;;;;;37.22;21.30;;;;;;;1.93;66.48;101805.19;5016024;28;20520;-66
2022/03/05 01:37:43;;;;;;;39.65;23.25;;;;;;;1.90;67.03;101805.47;5014768;28;20053;-67
2022/03/05 01:40:09;;;;;;;39.33;22.75;;;;;;;1.89;67.18;101809.13;5015740;28;20421;-67
2022/03/05 01:42:35;;;;;;;41.22;23.02;;;;;;;1.81;66.96;101806.31;5018914;28;20067;-67
2022/03/05 01:45:00;;;;;;;40.10;22.40;;;;;;;1.83;67.19;101809.69;5035009;28;20030;-67
2022/03/05 01:47:25;;;;;;;35.70;22.38;;;;;;;1.76;67.94;101808.56;5035131;28;20033;-67
2022/03/05 01:49:50;;;;;;;45.47;23.27;;;;;;;1.79;67.30;101815.47;5034377;28;20527;-67
2022/03/05 01:52:16;;;;;;;43.63;24.80;;;;;;;1.76;66.85;101817.41;5034917;28;20063;-67
2022/03/05 01:54:44;;;;;;;38.78;22.25;;;;;;;1.72;67.95;101808.03;5034191;28;20075;-67
2022/03/05 01:57:13;;;;;;;41.85;24.58;;;;;;;1.73;67.84;101809.69;5034859;28;20033;-67
2022/03/05 01:59:39;;;;;;;41.20;22.67;;;;;;;1.70;68.02;101806.47;5035266;28;20072;-67
2022/03/05 02:02:04;;;;;;;39.92;23.55;;;;;;;1.69;67.32;101813.66;5015804;28;20438;-66
2022/03/05 02:04:30;;;;;;;41.67;23.42;;;;;;;1.67;67.34;101812.94;5013990;28;20053;-67
2022/03/05 02:06:55;;;;;;;45.78;24.02;;;;;;;1.64;68.04;101807.06;5013926;28;20025;-67
2022/03/05 02:09:21;;;;;;;40.33;23.13;;;;;;;1.54;68.64;101813.25;5015114;28;20504;-67
2022/03/05 02:11:47;;;;;;;42.45;23.92;;;;;;;1.53;68.63;101810.72;5015325;28;20037;-67
2022/03/05 02:14:16;;;;;;;39.08;23.58;;;;;;;1.54;68.65;101815.06;5015288;28;20038;-67
2022/03/05 02:16:41;;;;;;;41.97;24.23;;;;;;;1.44;67.95;101809.75;5030317;28;20040;-66
2022/03/05 02:19:06;;;;;;;37.95;23.23;;;;;;;1.46;68.61;101809.59;5034638;28;20432;-67
2022/03/05 02:21:32;;;;;;;41.08;24.02;;;;;;;1.38;68.79;101799.63;5034895;28;20373;-67
2022/03/05 02:23:57;;;;;;;44.45;26.15;;;;;;;1.35;68.45;101807.94;5034832;28;20025;-67
2022/03/05 02:26:23;;;;;;;42.13;24.63;;;;;;;1.40;68.99;101800.31;5034502;28;20120;-66
2022/03/05 02:28:49;;;;;;;42.00;24.15;;;;;;;1.35;68.60;101799.94;5033143;28;20488;-67
2022/03/05 02:31:14;;;;;;;41.15;23.88;;;;;;;1.33;69.13;101793.88;5020215;28;20088;-67
2022/03/05 02:33:42;;;;;;;44.50;25.48;;;;;;;1.24;69.29;101788.41;5014904;28;20025;-67
2022/03/05 02:36:07;;;;;;;38.50;24.52;;;;;;;1.23;69.78;101792.06;5014703;28;20030;-67
2022/03/05 02:38:33;;;;;;;42.90;25.15;;;;;;;1.21;69.89;101788.69;5014831;28;20117;-67
2022/03/05 02:40:58;;;;;;;43.10;24.90;;;;;;;1.23;69.34;101785.88;5015827;28;20060;-66
2022/03/05 02:43:25;;;;;;;44.95;24.27;;;;;;;1.21;69.04;101782.53;5014463;28;20030;-66
2022/03/05 02:45:51;;;;;;;42.30;24.10;;;;;;;1.17;69.68;101792.63;5013256;28;20030;-67
2022/03/05 02:48:17;;;;;;;42.47;24.58;;;;;;;1.17;69.44;101797.13;5014636;28;20029;-67
2022/03/05 02:50:44;;;;;;;46.08;25.40;;;;;;;1.10;70.09;101801.31;5024418;28;20079;-66
2022/03/05 02:53:09;;;;;;;41.88;23.95;;;;;;;1.12;69.79;101799.34;5034045;28;20030;-67
2022/03/05 02:55:35;;;;;;;59.10;28.77;;;;;;;1.06;69.81;101798.09;5033957;28;20036;-67
2022/03/05 02:58:01;;;;;;;46.55;25.83;;;;;;;0.97;70.22;101802.44;5034064;28;20025;-67
2022/03/05 03:00:27;;;;;;;42.58;24.60;;;;;;;1.03;70.19;101796.53;5031897;28;20029;-67
2022/03/05 03:02:52;;;;;;;44.67;26.35;;;;;;;1.02;70.30;101805.50;5033741;28;20056;-67
2022/03/05 03:05:17;;;;;;;46.70;26.88;;;;;;;1.04;69.39;101802.69;5024294;28;20157;-67
2022/03/05 03:07:44;;;;;;;43.65;25.95;;;;;;;1.07;69.92;101797.09;5014274;28;20037;-66
2022/03/05 03:10:12;;;;;;;43.95;25.55;;;;;;;1.02;69.33;101797.50;5012657;28;20468;-66
2022/03/05 03:12:38;;;;;;;45.17;24.95;;;;;;;1.06;69.88;101800.75;5013837;28;20125;-67
2022/03/05 03:15:06;;;;;;;47.17;25.98;;;;;;;1.08;70.13;101800.63;5013769;28;20044;-67
2022/03/05 03:17:39;;;;;;;44.10;25.95;;;;;;;1.11;69.37;101797.69;5013901;28;20038;-66
2022/03/05 03:20:05;;;;;;;43.75;24.90;;;;;;;1.12;68.88;101796.66;5013726;28;20374;-67
2022/03/05 03:22:30;;;;;;;43.65;25.58;;;;;;;1.08;69.29;101789.97;5014008;28;20030;-67
2022/03/05 03:24:55;;;;;;;41.50;24.42;;;;;;;1.06;69.86;101795.44;5019440;28;20040;-67
2022/03/05 03:27:21;;;;;;;43.70;25.40;;;;;;;0.94;69.97;101792.03;5033441;28;20414;-67
2022/03/05 03:29:46;;;;;;;43.38;25.15;;;;;;;0.96;69.41;101787.41;5033706;28;20026;-66
2022/03/05 03:32:11;;;;;;;46.33;25.92;;;;;;;0.95;69.76;101793.75;5033346;28;20028;-67
2022/03/05 03:34:36;;;;;;;43.58;25.30;;;;;;;0.93;68.99;101789.53;5032181;28;20468;-67
2022/03/05 03:37:02;;;;;;;47.30;25.83;;;;;;;0.93;69.27;101794.84;5033285;28;20120;-67
2022/03/05 03:39:27;;;;;;;46.60;25.92;;;;;;;0.90;69.79;101787.97;5027915;28;20084;-66
2022/03/05 03:41:52;;;;;;;43.67;24.40;;;;;;;0.88;69.43;101780.09;5013651;28;20037;-67
2022/03/05 03:44:18;;;;;;;40.97;24.85;;;;;;;0.85;69.44;101775.06;5013319;28;20030;-66
2022/03/05 03:46:43;;;;;;;46.22;25.00;;;;;;;0.87;69.87;101789.06;5013617;28;20450;-67
2022/03/05 03:49:08;;;;;;;47.60;27.42;;;;;;;0.79;69.34;101783.59;5013211;28;20033;-66
2022/03/05 03:51:34;;;;;;;46.05;25.42;;;;;;;0.77;70.30;101796.22;5013775;28;20079;-66
2022/03/05 03:53:59;;;;;;;42.17;25.65;;;;;;;0.79;69.97;101788.94;5016449;28;20362;-66
2022/03/05 03:56:24;;;;;;;48.42;25.73;;;;;;;0.74;69.95;101787.66;5032613;28;20566;-67
2022/03/05 03:58:49;;;;;;;42.80;25.30;;;;;;;0.76;70.00;101793.72;5033067;28;20056;-66
2022/03/05 04:01:15;;;;;;;42.17;25.38;;;;;;;0.73;69.71;101792.16;5030245;28;20029;-66
2022/03/05 04:03:40;;;;;;;42.83;25.50;;;;;;;0.70;69.93;101795.91;5032887;28;20041;-67
2022/03/05 04:06:05;;;;;;;46.30;25.20;;;;;;;0.70;70.13;101782.59;5032878;28;20176;-66
2022/03/05 04:08:42;;;;;;;43.78;25.85;;;;;;;0.68;69.87;101787.22;5032691;28;20037;-67
2022/03/05 04:11:13;;;;;;;40.88;25.52;;;;;;;0.66;70.19;101791.00;5027666;28;20030;-66
2022/03/05 04:13:38;;;;;;;46.80;26.50;;;;;;;0.64;70.37;101784.97;5032813;28;20123;-66
2022/03/05 04:16:04;;;;;;;49.22;27.20;;;;;;;0.64;70.57;101795.63;5032741;28;20433;-66
2022/03/05 04:18:30;;;;;;;46.92;25.80;;;;;;;0.52;70.74;101792.25;5031230;28;20029;-67
2022/03/05 04:20:56;;;;;;;45.28;26.70;;;;;;;0.49;70.95;101792.50;5032489;28;20033;-67
2022/03/05 04:23:21;;;;;;;47.63;27.30;;;;;;;0.43;71.08;101793.06;5031155;28;20029;-67
2022/03/05 04:25:47;;;;;;;45.35;27.00;;;;;;;0.44;70.83;101784.06;5030762;28;20025;-67
2022/03/05 04:28:12;;;;;;;45.15;25.98;;;;;;;0.42;71.43;101796.69;5032198;28;20025;-66
2022/03/05 04:30:37;;;;;;;44.67;26.20;;;;;;;0.48;70.49;101796.13;5032789;28;20105;-67
2022/03/05 04:33:02;;;;;;;47.55;26.60;;;;;;;0.41;71.45;101787.88;5032568;28;20025;-67
2022/03/05 04:35:28;;;;;;;47.60;27.02;;;;;;;0.35;71.33;101789.25;5031040;28;20110;-66
2022/03/05 04:37:53;;;;;;;47.03;26.95;;;;;;;0.38;71.22;101798.78;5032807;28;20028;-66
2022/03/05 04:40:19;;;;;;;47.83;26.05;;;;;;;0.45;70.77;101802.56;5032293;28;20033;-67
2022/03/05 04:42:44;;;;;;;46.40;26.20;;;;;;;0.46;71.33;101808.75;5012654;28;20052;-67
2022/03/05 04:45:10;;;;;;;46.72;26.52;;;;;;;0.41;71.50;101802.97;5012185;28;20400;-67
2022/03/05 04:47:37;;;;;;;48.75;27.50;;;;;;;0.39;71.74;101803.13;5012449;28;20164;-67
2022/03/05 04:50:03;;;;;;;49.72;26.67;;;;;;;0.37;71.25;101810.41;5024600;28;20026;-66
2022/03/05 04:52:29;;;;;;;44.80;25.98;;;;;;;0.34;71.88;101800.84;5011212;28;20397;-67
2022/03/05 04:54:54;;;;;;;47.22;26.95;;;;;;;0.37;71.11;101809.56;5031570;28;20112;-66
2022/03/05 04:57:19;;;;;;;48.28;26.70;;;;;;;0.31;71.83;101802.97;5016507;28;20083;-67
2022/03/05 04:59:45;;;;;;;46.08;26.48;;;;;;;0.28;71.53;101816.53;5020068;28;20493;-66
2022/03/05 05:02:10;;;;;;;46.90;26.25;;;;;;;0.25;71.57;101814.97;5013623;28;20083;-66
2022/03/05 05:04:35;;;;;;;47.10;26.80;;;;;;;0.20;72.08;101811.88;5031566;28;20048;-66
2022/03/05 05:07:01;;;;;;;49.38;26.92;;;;;;;0.20;72.22;101814.53;5031844;28;20420;-67
2022/03/05 05:09:26;;;;;;;48.20;26.83;;;;;;;0.16;72.47;101813.13;5015770;28;20034;-67
2022/03/05 05:11:51;;;;;;;50.05;26.95;;;;;;;0.16;72.43;101813.94;5031895;28;20121;-67
2022/03/05 05:14:17;;;;;;;46.55;27.58;;;;;;;0.05;72.78;101811.38;5022580;28;20034;-66
2022/03/05 05:16:42;;;;;;;51.30;26.83;;;;;;;0.09;72.34;101807.50;5012261;28;20036;-67
2022/03/05 05:19:27;;;;;;;48.90;26.90;;;;;;;0.07;72.39;101814.75;5012938;28;20127;-66
2022/03/05 05:22:05;;;;;;;48.40;26.27;;;;;;;0.05;72.30;101808.72;5014876;28;20038;-67
2022/03/05 05:24:35;;;;;;;46.75;25.90;;;;;;;0.02;72.67;101811.66;5031981;28;20048;-66
2022/03/05 05:27:02;;;;;;;46.47;26.40;;;;;;;0.08;72.12;101818.28;5027713;28;20481;-67
2022/03/05 05:29:27;;;;;;;45.35;26.20;;;;;;;0.00;72.79;101808.28;5017061;28;20030;-67
2022/03/05 05:31:55;;;;;;;48.28;27.55;;;;;;;0.05;72.91;101819.38;5011045;28;20461;-67
2022/03/05 05:34:21;;;;;;;45.97;25.42;;;;;;;0.02;72.01;101822.28;5010755;28;20470;-67
2022/03/05 05:36:46;;;;;;;50.80;25.77;;;;;;;-0.11;71.85;101819.81;5014387;28;20109;-67
2022/03/05 05:39:12;;;;;;;48.35;26.42;;;;;;;-0.15;72.89;101831.72;5015790;28;20117;-66
2022/03/05 05:41:38;;;;;;;53.20;26.60;;;;;;;-0.19;72.83;101831.13;5015779;28;20038;-66
2022/03/05 05:44:06;;;;;;;48.53;27.35;;;;;;;-0.18;72.90;101837.31;5027326;28;20040;-67
2022/03/05 05:46:32;;;;;;;51.65;27.00;;;;;;;-0.31;73.51;101826.84;5033936;28;20493;-67
2022/03/05 05:48:58;;;;;;;47.10;25.88;;;;;;;-0.31;73.04;101832.16;5032983;28;20046;-66
2022/03/05 05:51:25;;;;;;;51.17;26.73;;;;;;;-0.27;73.41;101840.72;5025633;28;20038;-67
2022/03/05 05:53:50;;;;;;;47.10;25.48;;;;;;;-0.21;73.81;101843.72;5026410;28;20060;-66
2022/03/05 05:56:16;;;;;;;48.83;26.83;;;;;;;-0.26;73.55;101837.94;5034537;28;20061;-67
2022/03/05 05:58:41;;;;;;;47.70;25.85;;;;;;;-0.20;73.44;101847.22;5034987;28;20030;-66
2022/03/05 06:01:07;;;;;;;48.40;26.40;;;;;;;-0.26;73.91;101839.75;5020604;28;20072;-67
2022/03/05 06:03:32;;;;;;;48.20;26.63;;;;;;;-0.33;73.41;101849.22;5017390;28;20033;-67
2022/03/05 06:05:58;;;;;;;48.75;26.50;;;;;;;-0.40;73.90;101840.94;5016998;28;20034;-67
2022/03/05 06:08:24;;;;;;;48.08;25.20;;;;;;;-0.40;73.41;101844.41;5015856;28;20113;-67
2022/03/05 06:10:49;;;;;;;48.72;26.13;;;;;;;-0.33;73.21;101842.09;5034865;28;20121;-67
2022/03/05 06:13:15;;;;;;;45.03;25.60;;;;;;;-0.30;73.01;101848.97;5025486;28;20113;-66
2022/03/05 06:15:41;;;;;;;49.10;25.80;;;;;;;-0.34;73.36;101844.91;5015152;28;20458;-66
2022/03/05 06:18:06;;;;;;;52.88;26.13;;;;;;;-0.28;73.10;101834.56;5034694;28;20033;-67
2022/03/05 06:20:31;;;;;;;47.53;25.35;;;;;;;-0.28;73.35;101837.22;5027339;28;20037;-67
2022/03/05 06:22:57;;;;;;;51.10;26.70;;;;;;;-0.27;73.28;101838.94;5014811;28;20057;-67
2022/03/05 06:25:22;;;;;;;47.67;26.35;;;;;;;-0.33;73.06;101843.91;5014697;28;20034;-66
2022/03/05 06:27:47;;;;;;;47.08;25.38;;;;;;;-0.33;73.69;101833.25;5014655;28;20025;-67
2022/03/05 06:30:13;;;;;;;48.58;26.58;;;;;;;-0.40;73.35;101838.25;5015085;28;20033;-66
2022/03/05 06:32:38;;;;;;;47.65;26.35;;;;;;;-0.39;73.59;101839.97;5027767;28;20067;-67
2022/03/05 06:35:05;;;;;;;51.03;25.52;;;;;;;-0.34;73.92;101847.56;5034604;28;20465;-67
2022/03/05 06:37:31;;;;;;;47.85;25.33;;;;;;;-0.32;72.86;101848.25;5018215;28;20379;-66
2022/03/05 06:39:57;;;;;;;46.38;25.35;;;;;;;-0.23;72.49;101856.31;5014794;28;20034;-66
2022/03/05 06:42:22;;;;;;;49.72;26.42;;;;;;;-0.27;73.47;101848.69;5020743;28;20108;-66
2022/03/05 06:44:47;;;;;;;48.58;25.60;;;;;;;-0.33;73.26;101852.75;5031815;28;20527;-67
2022/03/05 06:47:13;;;;;;;47.33;25.30;;;;;;;-0.30;72.91;101844.50;5013571;28;20597;-66
2022/03/05 06:49:38;;;;;;;51.15;25.88;;;;;;;-0.26;72.60;101853.88;5019089;28;20033;-66
2022/03/05 06:52:03;;;;;;;51.85;26.13;;;;;;;-0.27;73.00;101859.34;5034606;28;20029;-66
2022/03/05 06:54:29;;;;;;;47.63;25.48;;;;;;;-0.24;73.27;101857.28;5034057;28;20065;-67
2022/03/05 06:56:54;;;;;;;47.67;25.88;;;;;;;-0.23;72.92;101855.47;5031382;28;20039;-69
2022/03/05 06:59:19;;;;;;;50.13;25.73;;;;;;;-0.19;73.07;101856.91;5023287;28;20046;-67
2022/03/05 07:01:44;;;;;;;52.20;26.45;;;;;;;-0.22;73.34;101855.34;5010836;28;20612;-67
2022/03/05 07:04:10;;;;;;;45.80;24.20;;;;;;;-0.21;72.86;101862.34;5021878;28;20483;-66
2022/03/05 07:06:37;;;;;;;49.40;26.52;;;;;;;-0.25;73.06;101868.88;5033505;28;20029;-67
2022/03/05 07:09:03;;;;;;;51.28;26.00;;;;;;;-0.21;72.97;101864.19;5031797;28;20033;-67
2022/03/05 07:11:29;;;;;;;50.50;26.15;;;;;;;-0.28;73.96;101873.63;5024147;28;20543;-69
2022/03/05 07:13:54;;;;;;;50.47;26.10;;;;;;;-0.27;74.29;101877.97;5041416;28;20034;-69
2022/03/05 07:16:19;;;;;;;49.65;26.33;;;;;;;-0.19;74.05;101881.66;5013737;28;20088;-68
2022/03/05 07:18:45;;;;;;;51.88;27.08;;;;;;;-0.24;73.92;101870.59;5023743;28;20057;-69
2022/03/05 07:21:10;;;;;;;50.47;25.25;;;;;;;-0.22;73.63;101881.94;5015744;28;20032;-69
2022/03/05 07:23:35;;;;;;;49.45;26.30;;;;;;;-0.24;73.51;101883.88;5018198;28;20021;-69
2022/03/05 07:26:01;;;;;;;49.97;25.92;;;;;;;-0.19;73.79;101894.13;5031590;28;20041;-67
2022/03/05 07:28:26;;;;;;;52.08;27.85;;;;;;;-0.26;74.47;101885.81;5032166;28;20037;-67
2022/03/05 07:30:52;;;;;;;49.75;26.48;;;;;;;-0.23;74.16;101888.25;5028134;28;20041;-68
2022/03/05 07:33:18;;;;;;;49.63;26.77;;;;;;;-0.18;74.99;101890.53;5027705;28;20044;-69
2022/03/05 07:35:43;;;;;;;54.20;27.58;;;;;;;-0.11;74.78;101881.03;5033255;28;20033;-69
2022/03/05 07:38:09;;;;;;;54.22;26.35;;;;;;;-0.09;74.23;101883.56;5027095;28;20030;-69
2022/03/05 07:40:34;;;;;;;54.20;28.83;;;;;;;-0.01;73.64;101876.63;5032895;28;20037;-69
2022/03/05 07:42:59;;;;;;;51.75;27.55;;;;;;;0.02;73.78;101880.84;5032951;28;20057;-68
2022/03/05 07:45:25;;;;;;;48.05;26.00;;;;;;;0.08;74.07;101879.50;5031348;28;20625;-70
2022/03/05 07:47:50;;;;;;;51.92;25.95;;;;;;;0.07;74.07;101872.47;5031161;28;20036;-67
2022/03/05 07:50:15;;;;;;;51.08;26.52;;;;;;;0.14;74.04;101879.78;5016275;28;20504;-69
2022/03/05 07:52:41;;;;;;;53.15;27.25;;;;;;;0.20;73.79;101873.09;5013206;28;20026;-69
2022/03/05 07:55:06;;;;;;;58.67;31.10;;;;;;;0.16;73.84;101871.69;5024588;28;20048;-69
2022/03/05 07:57:33;;;;;;;53.13;26.83;;;;;;;0.13;74.53;101883.41;5031617;28;20037;-70
2022/03/05 07:59:58;;;;;;;53.05;27.67;;;;;;;0.19;74.23;101886.56;5032356;28;20499;-69
2022/03/05 08:02:24;;;;;;;55.50;27.27;;;;;;;0.30;73.84;101889.13;5030502;28;20025;-70
2022/03/05 08:04:49;;;;;;;50.60;26.90;;;;;;;0.40;73.75;101894.50;5032399;28;20084;-70
2022/03/05 08:07:15;;;;;;;58.25;27.25;;;;;;;0.49;73.58;101907.03;5032697;28;20037;-69
2022/03/05 08:09:43;;;;;;;51.95;27.42;;;;;;;0.48;73.59;101908.00;5019854;28;20464;-69
2022/03/05 08:12:09;;;;;;;52.78;27.08;;;;;;;0.56;73.85;101897.53;5013296;28;20037;-70
2022/03/05 08:14:36;;;;;;;60.85;28.42;;;;;;;0.63;73.64;101908.50;5012720;28;20041;-69
2022/03/05 08:17:02;;;;;;;54.08;26.67;;;;;;;0.68;72.94;101915.09;5013069;28;20120;-70
2022/03/05 08:19:27;;;;;;;57.55;28.13;;;;;;;0.68;72.95;101908.91;5011543;28;20120;-71
2022/03/05 08:21:52;;;;;;;55.38;27.15;;;;;;;0.81;72.81;101909.53;5012930;28;20022;-72
2022/03/05 08:24:18;;;;;;;54.08;27.92;;;;;;;0.92;72.69;101908.63;5023952;28;20037;-71
2022/03/05 08:26:43;;;;;;;52.28;26.60;;;;;;;1.02;72.61;101921.97;5029064;28;20033;-72
2022/03/05 08:29:08;;;;;;;53.30;26.58;;;;;;;1.04;72.33;101915.53;5031389;28;20033;-71
2022/03/05 08:31:33;;;;;;;51.58;25.52;;;;;;;1.12;72.02;101922.84;5032426;28;20037;-70
2022/03/05 08:34:01;;;;;;;52.10;26.90;;;;;;;1.14;71.92;101915.53;5031282;28;20042;-70
2022/03/05 08:36:27;;;;;;;56.10;26.85;;;;;;;1.18;71.85;101908.94;5032311;28;20121;-71
2022/03/05 08:38:52;;;;;;;52.10;26.00;;;;;;;1.23;72.06;101912.03;5031281;28;20560;-69
2022/03/05 08:41:17;;;;;;;58.72;27.63;;;;;;;1.23;71.22;101920.03;5021465;28;20227;-71
2022/03/05 08:43:42;;;;;;;53.17;27.00;;;;;;;1.31;70.87;101919.34;5012530;28;20070;-71
2022/03/05 08:46:09;;;;;;;54.58;27.20;;;;;;;1.33;71.50;101921.88;5012639;28;20401;-71
2022/03/05 08:48:34;;;;;;;52.03;27.45;;;;;;;1.41;71.19;101922.88;5012519;28;20034;-71
2022/03/05 08:50:59;;;;;;;53.05;26.52;;;;;;;1.49;71.16;101921.34;5011415;28;20465;-70
2022/03/05 08:53:25;;;;;;;50.28;26.70;;;;;;;1.53;71.15;101922.78;5012754;28;20143;-70
2022/03/05 08:55:51;;;;;;;54.67;27.60;;;;;;;1.52;70.68;101921.06;5021209;28;20576;-68
2022/03/05 08:58:16;;;;;;;54.67;27.25;;;;;;;1.61;70.28;101920.22;5032341;28;20029;-71
2022/03/05 09:00:41;;;;;;;51.30;27.15;;;;;;;1.67;69.96;101921.50;5029784;28;20067;-70
2022/03/05 09:03:06;;;;;;;53.03;27.40;;;;;;;1.73;70.63;101919.09;5032162;28;20029;-72
2022/03/05 09:05:32;;;;;;;55.10;27.10;;;;;;;1.81;69.54;101918.41;5030728;28;20036;-73
2022/03/05 09:07:57;;;;;;;52.40;26.98;;;;;;;1.92;70.47;101928.94;5032248;28;20033;-70
2022/03/05 09:10:22;;;;;;;50.78;26.65;;;;;;;2.00;69.84;101928.22;5025501;28;20038;-70
2022/03/05 09:12:47;;;;;;;51.53;25.58;;;;;;;1.95;68.58;101920.66;5016239;28;20045;-69
2022/03/05 09:15:13;;;;;;;51.47;26.92;;;;;;;1.99;68.77;101917.69;5016082;28;20445;-71
2022/03/05 09:17:38;;;;;;;50.58;26.05;;;;;;;2.08;69.74;101922.19;5016156;28;20029;-72
2022/03/05 09:20:05;;;;;;;53.70;26.30;;;;;;;2.15;69.42;101920.63;5016267;28;20454;-70
2022/03/05 09:22:30;;;;;;;55.65;27.38;;;;;;;2.25;69.20;101916.13;5016004;28;20037;-70
2022/03/05 09:24:55;;;;;;;52.47;27.10;;;;;;;2.30;68.68;101919.19;5016441;28;20377;-71
2022/03/05 09:27:21;;;;;;;58.22;26.60;;;;;;;2.38;68.00;101909.63;5016097;28;20057;-71
2022/03/05 09:29:46;;;;;;;53.28;26.65;;;;;;;2.43;68.32;101907.34;5015881;28;20041;-69
2022/03/05 09:32:11;;;;;;;50.22;26.83;;;;;;;2.47;68.09;101909.56;5015746;28;20496;-68
2022/03/05 09:34:37;;;;;;;50.08;25.98;;;;;;;2.56;68.61;101907.03;5014492;28;20026;-70
2022/03/05 09:37:02;;;;;;;50.80;26.88;;;;;;;2.58;67.91;101905.91;5016258;28;20042;-71
2022/03/05 09:39:28;;;;;;;53.17;27.13;;;;;;;2.68;67.83;101895.16;5016820;28;20030;-72
2022/03/05 09:41:54;;;;;;;52.17;26.50;;;;;;;2.76;67.56;101899.78;5021666;28;20078;-71
2022/03/05 09:44:19;;;;;;;53.63;27.80;;;;;;;2.77;66.38;101904.13;5035611;28;20030;-72
2022/03/05 09:46:44;;;;;;;51.28;26.95;;;;;;;2.84;67.11;101902.56;5022175;28;20030;-70
2022/03/05 09:49:10;;;;;;;53.50;26.60;;;;;;;2.95;67.18;101905.03;5014370;28;20515;-71
2022/03/05 09:51:35;;;;;;;51.03;25.92;;;;;;;3.07;66.71;101899.50;5015379;28;20037;-70
2022/03/05 09:54:02;;;;;;;49.65;27.40;;;;;;;3.20;66.07;101910.66;5019047;28;20041;-73
2022/03/05 09:56:28;;;;;;;50.47;27.17;;;;;;;3.23;65.26;101905.03;5015376;28;20034;-72
2022/03/05 09:58:54;;;;;;;48.05;26.58;;;;;;;3.25;64.94;101897.69;5015650;28;20025;-71
2022/03/05 10:01:20;;;;;;;47.67;25.98;;;;;;;3.31;63.93;101906.94;5013276;28;20046;-71
2022/03/05 10:03:50;;;;;;;55.63;26.45;;;;;;;3.33;64.91;101899.59;5015216;28;20030;-72
2022/03/05 10:06:18;;;;;;;52.75;26.55;;;;;;;3.43;64.40;101899.50;5015278;28;20032;-70
2022/03/05 10:08:44;;;;;;;49.65;25.88;;;;;;;3.52;63.73;101910.16;5026398;28;20473;-69
2022/03/05 10:11:11;;;;;;;50.15;26.70;;;;;;;3.51;63.53;101904.97;5019525;28;20034;-72
2022/03/05 10:13:39;;;;;;;49.13;26.10;;;;;;;3.57;62.98;101904.34;5015030;28;20030;-71
2022/03/05 10:16:29;;;;;;;47.03;25.88;;;;;;;3.65;64.04;101901.72;5015303;28;20033;-69
2022/03/05 10:18:56;;;;;;;52.17;25.88;;;;;;;3.79;65.00;101897.69;5014975;28;20381;-70
2022/03/05 10:21:29;;;;;;;50.30;26.98;;;;;;;3.93;63.88;101898.16;5015086;28;20088;-71
2022/03/05 10:24:07;;;;;;;45.88;25.80;;;;;;;4.02;63.16;101900.72;5027887;28;20037;-70
2022/03/05 10:26:53;;;;;;;48.25;24.73;;;;;;;4.14;62.10;101904.00;5018634;28;20028;-70
2022/03/05 10:29:26;;;;;;;45.00;24.02;;;;;;;4.17;61.84;101898.31;5023510;28;20099;-71
2022/03/05 10:32:01;;;;;;;46.97;25.25;;;;;;;4.26;60.58;101896.53;5017782;28;20038;-67
2022/03/05 10:34:27;;;;;;;47.83;26.08;;;;;;;4.35;61.78;101900.94;5014659;28;20025;-72
2022/03/05 10:37:00;;;;;;;41.42;23.00;;;;;;;4.47;59.23;101897.97;5015761;28;20040;-73
2022/03/05 10:39:27;;;;;;;44.63;24.48;;;;;;;4.59;60.35;101900.25;5014908;28;20033;-70
2022/03/05 10:41:54;;;;;;;41.05;23.42;;;;;;;4.69;58.58;101904.66;5014561;28;20030;-68
2022/03/05 10:44:20;;;;;;;41.28;23.88;;;;;;;4.72;59.82;101902.47;5014729;28;20037;-72
2022/03/05 10:47:00;;;;;;;41.17;23.63;;;;;;;4.89;60.23;101902.53;5020981;28;20409;-72
2022/03/05 10:49:27;;;;;;;39.35;23.48;;;;;;;4.94;58.51;101901.06;5033645;28;20090;-69
2022/03/05 10:52:06;;;;;;;43.17;24.10;;;;;;;5.02;58.91;101896.75;4996890;28;20063;-72
2022/03/05 10:54:40;;;;;;;43.63;24.02;;;;;;;5.02;56.79;101908.31;5016448;28;20065;-69
2022/03/05 10:57:08;;;;;;;41.00;23.20;;;;;;;5.04;56.62;101906.31;5034523;28;20044;-69
2022/03/05 10:59:35;;;;;;;43.38;24.92;;;;;;;5.06;58.20;101893.56;5032832;28;20490;-70
2022/03/05 11:02:01;;;;;;;44.83;24.33;;;;;;;5.13;57.58;101908.03;5031789;28;20508;-68
2022/03/05 11:04:27;;;;;;;50.42;26.20;;;;;;;5.17;59.21;101905.00;5033574;28;20063;-70
2022/03/05 11:06:53;;;;;;;48.83;25.45;;;;;;;5.24;57.75;101897.97;5033445;28;20037;-73
2022/03/05 11:09:19;;;;;;;45.28;25.63;;;;;;;5.32;58.63;101903.38;5033754;28;20504;-70
2022/03/05 11:11:44;;;;;;;47.40;25.38;;;;;;;5.45;57.77;101902.88;5015218;28;20026;-71